Time;durP1;ratioP1;P1;durP2;ratioP2;P2;SDS_P1;SDS_P2;PMS_P1;PMS_P2;Temp;Humidity;BMP_temperature;BMP_pressure;BME280_temperature;BME280_humidity;BME280_pressure;Samples;Min_cycle;Max_cycle;Signal;HPM_P1;HPM_P2
2023/04/29 00:01:11;;;;;;;58.95;33.40;;;;;;;;;;4854752;28;20477;-80
2023/04/29 00:07:14;;;;;;;60.57;33.43;;;;;;;;;;4970358;28;20532;-79
2023/04/29 00:10:02;;;;;;;56.50;32.43;;;;;;;;;;4956631;28;20404;-80
2023/04/29 00:19:38;;;;;;;68.90;34.73;;;;;;;;;;4956678;28;20506;-79
2023/04/29 00:22:13;;;;;;;59.78;33.58;;;;;;;;;;4951978;29;20521;-80
2023/04/29 00:24:39;;;;;;;63.58;34.05;;;;;;;;;;4950645;28;20430;-79
2023/04/29 00:27:06;;;;;;;59.58;32.55;;;;;;;;;;4945088;28;20426;-80
2023/04/29 00:29:32;;;;;;;61.85;33.05;;;;;;;;;;4956058;28;21048;-80
2023/04/29 00:31:58;;;;;;;67.00;32.45;;;;;;;;;;4962175;28;20437;-80
2023/04/29 00:34:53;;;;;;;60.72;32.85;;;;;;;;;;4953208;28;20427;-80
2023/04/29 00:37:34;;;;;;;62.83;32.38;;;;;;;;;;4955743;28;20439;-79
2023/04/29 00:40:07;;;;;;;54.85;30.95;;;;;;;;;;4947052;28;20416;-79
2023/04/29 00:42:34;;;;;;;63.88;30.55;;;;;;;;;;4990070;28;20830;-80
2023/04/29 00:45:07;;;;;;;55.42;30.23;;;;;;;;;;5024276;28;20459;-80
2023/04/29 00:47:33;;;;;;;54.58;29.88;;;;;;;;;;5035309;28;20409;-80
2023/04/29 00:49:59;;;;;;;53.35;28.92;;;;;;;;;;5008970;28;20419;-80
2023/04/29 00:52:35;;;;;;;52.72;28.48;;;;;;;;;;5034559;28;20439;-80
2023/04/29 00:55:19;;;;;;;54.17;28.48;;;;;;;;;;5002302;28;20427;-80
2023/04/29 00:58:08;;;;;;;51.20;27.52;;;;;;;;;;5014354;28;20403;-80
2023/04/29 01:00:41;;;;;;;49.78;27.98;;;;;;;;;;4966349;28;20932;-80
2023/04/29 01:03:13;;;;;;;49.07;27.00;;;;;;;;;;4955501;28;20439;-80
2023/04/29 01:06:18;;;;;;;45.83;26.65;;;;;;;;;;4926009;28;20432;-80
2023/04/29 01:09:24;;;;;;;46.37;26.10;;;;;;;;;;4952419;28;20460;-80
2023/04/29 01:12:30;;;;;;;43.00;25.27;;;;;;;;;;4967263;23;20435;-80
2023/04/29 01:15:19;;;;;;;44.97;25.13;;;;;;;;;;4951706;28;20432;-79
2023/04/29 01:18:12;;;;;;;43.10;24.77;;;;;;;;;;5018522;28;20443;-80
2023/04/29 01:21:02;;;;;;;41.20;25.38;;;;;;;;;;4995451;28;20513;-80
2023/04/29 01:33:22;;;;;;;38.33;24.15;;;9.50;99.90;;;;;;4960122;28;20408;-80
2023/04/29 01:36:15;;;;;;;38.85;23.38;;;;;;;;;;4936450;29;20437;-80
2023/04/29 01:39:30;;;;;;;36.78;22.88;;;9.10;99.90;;;;;;4936241;28;20417;-80
2023/04/29 01:48:29;;;;;;;37.00;21.33;;;;;;;;;;4961919;28;20444;-80
2023/04/29 01:51:13;;;;;;;34.67;21.33;;;;;;;;;;4939225;28;20520;-80
2023/04/29 01:53:43;;;;;;;35.00;21.15;;;;;;;;;;4951729;28;20434;-80
2023/04/29 01:56:21;;;;;;;38.35;22.33;;;;;;;;;;4942082;28;20434;-78
2023/04/29 01:58:47;;;;;;;36.78;21.55;;;;;;;;;;4951620;28;20428;-80
2023/04/29 02:01:28;;;;;;;43.40;22.15;;;;;;;;;;4994677;28;20457;-79
2023/04/29 02:04:13;;;;;;;35.40;22.27;;;9.30;99.90;;;;;;4996924;28;20915;-79
2023/04/29 02:06:56;;;;;;;38.00;22.73;;;;;;;;;;4980272;28;20445;-79
2023/04/29 02:09:31;;;;;;;36.17;22.50;;;;;;;;;;5003608;28;20431;-80
2023/04/29 02:12:03;;;;;;;37.35;23.63;;;;;;;;;;5038278;23;20436;-79
2023/04/29 02:18:03;;;;;;;39.95;23.33;;;;;;;;;;4970982;28;20411;-79
2023/04/29 02:20:44;;;;;;;;;;;;;;;;;;;;;
2023/04/29 02:23:19;;;;;;;42.55;25.25;;;;;;;;;;4952521;28;20434;-79
2023/04/29 02:25:55;;;;;;;41.05;24.70;;;;;;;;;;4953247;28;20468;-79
2023/04/29 02:28:22;;;;;;;44.25;26.42;;;;;;;;;;4953915;28;20439;-80
2023/04/29 02:31:03;;;;;;;45.80;25.75;;;;;;;;;;4953737;28;20439;-79
2023/04/29 02:36:44;;;;;;;50.22;27.00;;;;;;;;;;4951342;28;20431;-80
2023/04/29 02:39:10;;;;;;;42.08;26.70;;;;;;;;;;4993761;28;20443;-80
2023/04/29 02:41:49;;;;;;;46.10;27.50;;;;;;;;;;5020220;28;20446;-80
2023/04/29 02:44:35;;;;;;;43.70;27.40;;;;;;;;;;5028599;28;20402;-80
2023/04/29 02:47:01;;;;;;;46.38;26.15;;;;;;;;;;5028172;28;20431;-79
2023/04/29 02:49:28;;;;;;;45.53;27.40;;;;;;;;;;5027859;28;20426;-80
2023/04/29 02:52:04;;;;;;;45.75;27.23;;;;;;;;;;5024974;28;20428;-80
2023/04/29 02:54:30;;;;;;;49.13;26.70;;;;;;;;;;5025678;28;20443;-80
2023/04/29 02:57:04;;;;;;;47.63;26.88;;;;;;;;;;5030092;28;20435;-80
2023/04/29 02:59:31;;;;;;;47.63;27.17;;;;;;;;;;5012282;28;20415;-80
2023/04/29 03:01:57;;;;;;;46.55;27.23;;;;;;;;;;5026363;28;20427;-80
2023/04/29 03:04:35;;;;;;;47.70;27.77;;;;;;;;;;5003928;28;20412;-80
2023/04/29 03:07:06;;;;;;;51.45;28.75;;;;;;;;;;5007100;28;20974;-79
2023/04/29 03:09:40;;;;;;;51.20;28.00;;;;;;;;;;5006928;28;20823;-79
2023/04/29 03:12:06;;;;;;;49.03;28.20;;;;;;;;;;5002671;28;20433;-79
2023/04/29 03:14:35;;;;;;;49.03;28.48;;;;;;;;;;5029691;28;20936;-80
2023/04/29 03:17:03;;;;;;;50.70;28.08;;;;;;;;;;5043558;28;20841;-80
2023/04/29 03:19:43;;;;;;;48.03;27.77;;;;;;;;;;4994172;28;20401;-79
2023/04/29 03:22:20;;;;;;;48.17;26.95;;;;;;;;;;4951026;28;20912;-80
2023/04/29 03:24:46;;;;;;;47.95;26.92;;;;;;;;;;4979438;28;20436;-80
2023/04/29 03:27:22;;;;;;;54.88;28.10;;;;;;;;;;4990314;28;20450;-81
2023/04/29 03:30:28;;;;;;;46.95;26.85;;;8.90;99.90;;;;;;4974633;28;20425;-80
2023/04/29 03:33:03;;;;;;;49.97;27.42;;;;;;;;;;4893425;29;20423;-80
2023/04/29 03:35:31;;;;;;;51.88;27.38;;;;;;;;;;4986182;28;20493;-80
2023/04/29 03:38:15;;;;;;;49.58;26.30;;;;;;;;;;4963304;28;20431;-80
2023/04/29 03:41:16;;;;;;;44.70;25.67;;;;;;;;;;4986907;28;20453;-80
2023/04/29 03:44:01;;;;;;;46.03;24.80;;;;;;;;;;4974141;28;20400;-80
2023/04/29 03:46:45;;;;;;;44.08;23.23;;;;;;;;;;4958487;28;20432;-80
2023/04/29 03:49:19;;;;;;;38.90;21.95;;;;;;;;;;4982508;28;20415;-80
2023/04/29 03:51:46;;;;;;;35.97;21.37;;;;;;;;;;4984238;28;20457;-80
2023/04/29 03:54:25;;;;;;;38.08;20.73;;;;;;;;;;5022696;28;20410;-80
2023/04/29 03:56:59;;;;;;;32.05;19.00;;;;;;;;;;5006778;28;20435;-80
2023/04/29 04:00:03;;;;;;;36.28;19.05;;;;;;;;;;4900556;28;20437;-81
2023/04/29 04:02:29;;;;;;;33.88;19.25;;;;;;;;;;4937731;29;20425;-80
2023/04/29 04:05:02;;;;;;;31.00;19.13;;;;;;;;;;4947380;28;20431;-78
2023/04/29 04:07:28;;;;;;;32.47;17.17;;;;;;;;;;4948935;28;20539;-81
2023/04/29 04:10:27;;;;;;;31.58;18.10;;;;;;;;;;4931117;29;20418;-80
2023/04/29 04:13:08;;;;;;;31.87;17.60;;;;;;;;;;4917856;29;21290;-80
2023/04/29 04:15:34;;;;;;;36.92;18.55;;;;;;;;;;4899013;29;20442;-79
2023/04/29 04:18:04;;;;;;;32.40;18.08;;;;;;;;;;4913202;29;20944;-80
2023/04/29 04:20:37;;;;;;;30.55;18.42;;;;;;;;;;4884886;29;20480;-79
2023/04/29 04:23:04;;;;;;;34.00;18.27;;;;;;;;;;4926326;29;20439;-79
2023/04/29 04:25:46;;;;;;;35.55;18.20;;;;;;;;;;4905110;29;20490;-80
2023/04/29 04:28:12;;;;;;;31.67;17.77;;;;;;;;;;4930643;29;20437;-79
2023/04/29 04:30:39;;;;;;;33.25;18.08;;;;;;;;;;4924505;29;20431;-80
2023/04/29 04:33:05;;;;;;;30.40;17.83;;;;;;;;;;4934497;29;20435;-80
2023/04/29 04:35:37;;;;;;;31.25;18.30;;;;;;;;;;4925811;29;20448;-80
2023/04/29 04:38:09;;;;;;;31.75;18.58;;;;;;;;;;4972830;28;20522;-80
2023/04/29 04:41:01;;;;;;;36.45;17.92;;;;;;;;;;4989308;28;20785;-80
2023/04/29 04:43:54;;;;;;;29.35;16.75;;;;;;;;;;5028204;28;20416;-79
2023/04/29 04:46:49;;;;;;;29.30;16.73;;;;;;;;;;5012280;28;20460;-80
2023/04/29 04:49:37;;;;;;;28.40;16.15;;;;;;;;;;5022430;28;20473;-80
2023/04/29 04:52:04;;;;;;;29.33;15.73;;;;;;;;;;4998767;28;20411;-80
2023/04/29 04:58:13;;;;;;;25.13;13.97;;;;;;;;;;4991840;28;21025;-81
2023/04/29 05:01:10;;;;;;;29.58;14.50;;;;;;;;;;4956417;28;20424;-80
2023/04/29 05:03:51;;;;;;;22.17;13.23;;;;;;;;;;4951564;28;20416;-79
2023/04/29 05:06:38;;;;;;;23.80;13.63;;;;;;;;;;4979439;28;20492;-80
2023/04/29 05:09:16;;;;;;;22.05;12.10;;;;;;;;;;4943705;29;20444;-80
2023/04/29 05:11:46;;;;;;;22.20;12.07;;;;;;;;;;4951263;29;20421;-80
2023/04/29 05:14:26;;;;;;;20.88;12.05;;;;;;;;;;4941176;28;20442;-81
2023/04/29 05:16:52;;;;;;;25.35;12.55;;;;;;;;;;4937107;29;20426;-80
2023/04/29 05:19:38;;;;;;;21.80;11.35;;;;;;;;;;4933466;29;20902;-80
2023/04/29 05:22:14;;;;;;;20.35;11.02;;;;;;;;;;4925743;29;20434;-79
2023/04/29 05:25:02;;;;;;;21.13;11.75;;;;;;;;;;4946503;29;20417;-80
2023/04/29 05:27:29;;;;;;;21.13;11.13;;;;;;;;;;4936978;29;20433;-80
2023/04/29 05:33:10;;;;;;;18.40;10.68;;;;;;;;;;4896298;29;20419;-81
2023/04/29 05:36:14;;;;;;;19.15;10.88;;;;;;;;;;4856917;29;21049;-81
2023/04/29 05:38:51;;;;;;;19.60;10.95;;;;;;;;;;4844685;29;20438;-81
2023/04/29 05:41:17;;;;;;;16.75;10.18;;;;;;;;;;4824807;29;20440;-81
2023/04/29 05:44:00;;;;;;;18.30;10.75;;;;;;;;;;4824897;29;20477;-80
2023/04/29 05:46:45;;;;;;;21.38;10.75;;;;;;;;;;4858394;29;20422;-79
2023/04/29 05:49:26;;;;;;;19.02;10.65;;;;;;;;;;4855325;29;20501;-79
2023/04/29 05:51:52;;;;;;;17.20;10.27;;;;;;;;;;4839873;29;20442;-80
2023/04/29 05:54:18;;;;;;;15.98;9.60;;;;;;;;;;4841247;29;20438;-79
2023/04/29 05:56:45;;;;;;;19.20;10.47;;;;;;;;;;4847060;29;20883;-79
2023/04/29 05:59:16;;;;;;;16.60;9.57;;;;;;;;;;4848378;29;20426;-81
2023/04/29 06:01:43;;;;;;;19.33;10.20;;;;;;;;;;4843936;29;20804;-80
2023/04/29 06:04:18;;;;;;;19.80;9.80;;;;;;;;;;4869403;29;20443;-80
2023/04/29 06:06:45;;;;;;;19.38;10.85;;;;;;;;;;4889031;29;20913;-81
2023/04/29 06:09:28;;;;;;;18.85;9.52;;;;;;;;;;4900792;29;20519;-80
2023/04/29 06:11:55;;;;;;;18.48;10.25;;;;;;;;;;4912718;29;20428;-80
2023/04/29 06:14:34;;;;;;;15.90;9.60;;;;;;;;;;4900980;29;20471;-80
2023/04/29 06:17:31;;;;;;;17.85;9.73;;;;;;;;;;4887579;29;20462;-80
2023/04/29 06:20:08;;;;;;;19.02;10.13;;;;;;;;;;4864427;29;21939;-80
2023/04/29 06:22:34;;;;;;;17.17;9.55;;;;;;;;;;4874923;29;20471;-80
2023/04/29 06:25:13;;;;;;;17.58;9.68;;;;;;;;;;4878410;29;20435;-80
2023/04/29 06:27:39;;;;;;;17.75;9.48;;;;;;;;;;4861727;29;20526;-79
2023/04/29 06:30:06;;;;;;;15.73;9.50;;;;;;;;;;4874774;29;20434;-80
2023/04/29 06:32:46;;;;;;;16.63;9.80;;;;;;;;;;4875429;29;20431;-81
2023/04/29 06:35:14;;;;;;;18.35;9.98;;;;;;;;;;4881999;29;20852;-80
2023/04/29 06:37:40;;;;;;;18.42;9.68;;;;;;;;;;4839552;29;20442;-81
2023/04/29 06:40:17;;;;;;;15.75;9.18;;;;;;;;;;4890718;29;20426;-81
2023/04/29 06:42:51;;;;;;;16.33;9.40;;;;;;;;;;4858774;29;20432;-79
2023/04/29 06:45:30;;;;;;;16.38;9.38;;;;;;;;;;4887709;29;20474;-78
2023/04/29 06:47:59;;;;;;;14.15;8.45;;;;;;;;;;4890772;29;20480;-79
2023/04/29 06:50:27;;;;;;;16.08;9.25;;;;;;;;;;4891338;29;20441;-80
2023/04/29 06:52:57;;;;;;;16.40;9.10;;;;;;;;;;4861800;29;20531;-80
2023/04/29 06:55:29;;;;;;;15.27;8.90;;;;;;;;;;4887669;29;20438;-80
2023/04/29 06:58:03;;;;;;;15.68;9.10;;;;;;;;;;4894702;29;20467;-79
2023/04/29 07:00:37;;;;;;;19.83;9.68;;;;;;;;;;4892646;29;20427;-80
2023/04/29 07:03:22;;;;;;;;;;;;;;;;;;;;;
2023/04/29 07:06:22;;;;;;;19.27;8.77;;;;;;;;;;4917881;28;20534;-80
2023/04/29 07:09:16;;;;;;;16.33;9.30;;;;;;;;;;4953789;28;20554;-79
2023/04/29 07:12:33;;;;;;;14.38;8.60;;;10.90;99.90;;;;;;4941873;28;20845;-79
2023/04/29 07:15:00;;;;;;;16.92;8.80;;;;;;;;;;4988294;28;20946;-79
2023/04/29 07:18:00;;;;;;;14.63;8.10;;;;;;;;;;4913440;29;20961;-80
2023/04/29 07:20:51;;;;;;;15.88;8.43;;;;;;;;;;4860804;29;20428;-80
2023/04/29 07:26:48;;;;;;;14.77;7.78;;;;;;;;;;4858027;29;20441;-80
2023/04/29 07:29:17;;;;;;;12.40;7.50;;;;;;;;;;4913300;28;20439;-79
2023/04/29 07:31:46;;;;;;;12.85;7.50;;;;;;;;;;4967534;28;20939;-80
2023/04/29 07:34:34;;;;;;;14.10;7.38;;;;;;;;;;4949923;28;20990;-80
2023/04/29 07:37:10;;;;;;;12.15;7.35;;;;;;;;;;4954709;28;20428;-81
2023/04/29 07:39:36;;;;;;;14.88;7.28;;;;;;;;;;4954190;28;20427;-80
2023/04/29 07:42:03;;;;;;;13.30;7.30;;;;;;;;;;4921661;28;20415;-79
2023/04/29 07:44:29;;;;;;;12.60;7.60;;;;;;;;;;4954682;28;20499;-81
2023/04/29 07:46:55;;;;;;;14.05;7.60;;;;;;;;;;4955512;28;20467;-81
2023/04/29 07:49:22;;;;;;;12.43;7.35;;;;;;;;;;4954040;28;20424;-81
2023/04/29 07:51:48;;;;;;;14.57;7.65;;;;;;;;;;4962475;28;20432;-80
2023/04/29 07:54:15;;;;;;;13.30;7.22;;;;;;;;;;4974554;28;20426;-80
2023/04/29 07:56:41;;;;;;;11.45;7.15;;;;;;;;;;4973161;28;20923;-80
2023/04/29 07:59:08;;;;;;;10.90;6.73;;;;;;;;;;4978675;28;20420;-79
2023/04/29 08:01:34;;;;;;;11.73;6.93;;;;;;;;;;4989226;28;20829;-79
2023/04/29 08:04:00;;;;;;;12.00;7.10;;;;;;;;;;4972898;28;21327;-79
2023/04/29 08:06:26;;;;;;;14.23;7.15;;;;;;;;;;5003808;28;20442;-78
2023/04/29 08:08:52;;;;;;;12.00;7.57;;;;;;;;;;5022900;28;20473;-79
2023/04/29 08:11:19;;;;;;;12.88;6.78;;;;;;;;;;5017037;28;20432;-78
2023/04/29 08:13:46;;;;;;;12.97;7.00;;;;;;;;;;5026577;28;20537;-81
2023/04/29 08:16:12;;;;;;;11.52;6.80;;;;;;;;;;5028006;28;20423;-79
2023/04/29 08:18:39;;;;;;;12.30;7.55;;;;;;;;;;5014002;28;20415;-80
2023/04/29 08:21:05;;;;;;;11.73;7.40;;;;;;;;;;5032483;28;20411;-78
2023/04/29 08:23:32;;;;;;;13.17;7.50;;;;;;;;;;5023846;28;20498;-75
2023/04/29 08:25:58;;;;;;;13.48;7.28;;;;;;;;;;5030872;28;20922;-76
2023/04/29 08:28:24;;;;;;;12.02;7.10;;;;;;;;;;5027385;28;20429;-77
2023/04/29 08:30:50;;;;;;;12.23;6.75;;;;;;;;;;5024331;28;20438;-77
2023/04/29 08:33:16;;;;;;;12.85;6.53;;;;;;;;;;5002668;28;21308;-77
2023/04/29 08:35:42;;;;;;;11.77;6.88;;;;;;;;;;5014384;28;20429;-77
2023/04/29 08:38:09;;;;;;;13.35;6.40;;;;;;;;;;5005707;28;20952;-77
2023/04/29 08:40:45;;;;;;;13.20;6.40;;;13.90;99.90;;;;;;5026240;28;20435;-77
2023/04/29 08:43:15;;;;;;;12.43;6.20;;;14.10;99.90;;;;;;5011929;28;21039;-76
2023/04/29 08:45:42;;;;;;;8.93;6.03;;;;;;;;;;4995697;28;20454;-77
2023/04/29 08:48:08;;;;;;;10.80;5.93;;;;;;;;;;5031260;28;20951;-77
2023/04/29 08:50:39;;;;;;;12.38;6.43;;;14.00;99.90;;;;;;5020375;28;20459;-77
2023/04/29 08:53:06;;;;;;;9.80;5.90;;;;;;;;;;5016685;28;20426;-77
2023/04/29 08:55:52;;;;;;;10.50;6.10;;;;;;;;;;5017002;28;20429;-77
2023/04/29 08:58:18;;;;;;;9.80;5.88;;;;;;;;;;5033288;28;20482;-77
2023/04/29 09:00:45;;;;;;;11.47;6.40;;;;;;;;;;5011391;28;20475;-78
2023/04/29 09:03:47;;;;;;;9.57;5.78;;;13.70;99.90;;;;;;5029059;28;20468;-79
2023/04/29 09:06:13;;;;;;;10.80;5.75;;;;;;;;;;4976418;28;20423;-79
2023/04/29 09:08:40;;;;;;;10.95;5.88;;;;;;;;;;5030024;28;20427;-78
2023/04/29 09:11:09;;;;;;;10.18;6.05;;;;;;;;;;5027467;28;20457;-77
2023/04/29 09:13:35;;;;;;;10.65;5.70;;;;;;;;;;5007050;28;20527;-77
2023/04/29 09:16:01;;;;;;;12.38;6.18;;;;;;;;;;5027122;28;20511;-77
2023/04/29 09:18:44;;;;;;;9.05;6.03;;;;;;;;;;5012389;28;20438;-77
2023/04/29 09:21:21;;;;;;;9.70;5.75;;;14.30;99.90;;;;;;5032868;28;20443;-76
2023/04/29 09:23:48;;;;;;;10.52;5.57;;;;;;;;;;5023018;28;20424;-78
2023/04/29 09:26:15;;;;;;;11.98;5.75;;;;;;;;;;5007782;28;20429;-77
2023/04/29 09:28:46;;;;;;;11.82;5.72;;;;;;;;;;5008894;28;20416;-78
2023/04/29 09:31:12;;;;;;;8.30;5.45;;;;;;;;;;5005960;28;20487;-79
2023/04/29 09:33:55;;;;;;;10.53;5.87;;;;;;;;;;5021413;28;20588;-79
2023/04/29 09:36:40;;;;;;;10.43;5.78;;;;;;;;;;5020818;28;20918;-81
2023/04/29 09:39:10;;;;;;;11.02;6.00;;;;;;;;;;5020121;28;20426;-80
2023/04/29 09:41:39;;;;;;;9.23;5.65;;;;;;;;;;5013224;28;20433;-80
2023/04/29 09:44:09;;;;;;;10.63;6.10;;;;;;;;;;5013335;28;20981;-81
2023/04/29 09:46:36;;;;;;;11.23;6.60;;;;;;;;;;5024938;28;20946;-79
2023/04/29 09:49:06;;;;;;;10.02;6.10;;;;;;;;;;5009657;28;20427;-78
2023/04/29 09:51:32;;;;;;;10.33;6.10;;;;;;;;;;5011981;28;20418;-81
2023/04/29 09:54:01;;;;;;;10.98;6.03;;;;;;;;;;5009019;28;20444;-80
2023/04/29 09:56:29;;;;;;;10.23;6.50;;;;;;;;;;5001887;28;20436;-80
2023/04/29 09:58:56;;;;;;;10.57;6.13;;;;;;;;;;4994402;28;20427;-80
2023/04/29 10:01:26;;;;;;;8.98;5.88;;;;;;;;;;5026998;28;20826;-80
2023/04/29 10:03:54;;;;;;;9.13;5.95;;;;;;;;;;5009974;28;20424;-81
2023/04/29 10:06:23;;;;;;;11.32;6.15;;;;;;;;;;5003989;28;20439;-80
2023/04/29 10:08:56;;;;;;;11.00;6.07;;;;;;;;;;5025387;28;20431;-79
2023/04/29 10:11:57;;;;;;;10.18;5.93;;;;;;;;;;5015191;28;20446;-80
2023/04/29 10:14:45;;;;;;;7.95;5.45;;;;;;;;;;5029172;28;20427;-80
2023/04/29 10:20:49;;;;;;;8.90;5.20;;;;;;;;;;4956766;28;20518;-80
2023/04/29 10:24:01;;;;;;;7.38;4.65;;;;;;;;;;5018129;28;20551;-80
2023/04/29 10:26:39;;;;;;;10.50;5.30;;;;;;;;;;5013513;28;20832;-81
2023/04/29 10:32:29;;;;;;;8.57;5.47;;;;;;;;;;5002302;28;20518;-81
2023/04/29 10:35:06;;;;;;;9.43;5.27;;;;;;;;;;5010175;28;20517;-81
2023/04/29 10:37:47;;;;;;;12.10;6.00;;;;;;;;;;5011951;28;20446;-82
2023/04/29 10:40:35;;;;;;;11.00;5.95;;;;;;;;;;5003955;28;20426;-81
2023/04/29 10:46:36;;;;;;;9.38;5.88;;;;;;;;;;5021872;28;20548;-82
2023/04/29 10:49:10;;;;;;;9.60;5.15;;;;;;;;;;5032334;28;20430;-81
2023/04/29 10:51:48;;;;;;;10.45;5.53;;;;;;;;;;5010618;28;20949;-81
2023/04/29 10:54:24;;;;;;;11.13;5.53;;;;;;;;;;5033200;28;20452;-82
2023/04/29 10:56:59;;;;;;;13.00;6.10;;;;;;;;;;5027449;28;20465;-81
2023/04/29 10:59:28;;;;;;;7.88;5.05;;;;;;;;;;5029621;28;20822;-80
2023/04/29 11:01:55;;;;;;;10.93;4.97;;;;;;;;;;5008281;28;20920;-80
2023/04/29 11:04:31;;;;;;;9.63;5.03;;;;;;;;;;4998267;28;20401;-80
2023/04/29 11:07:01;;;;;;;8.10;4.70;;;;;;;;;;5010070;28;20428;-81
2023/04/29 11:09:33;;;;;;;7.35;4.28;;;;;;;;;;4977755;28;20503;-80
2023/04/29 11:12:04;;;;;;;8.32;4.60;;;;;;;;;;5010008;28;20796;-80
2023/04/29 11:14:43;;;;;;;8.97;4.20;;;;;;;;;;4978026;28;20407;-80
2023/04/29 11:17:22;;;;;;;7.20;4.18;;;;;;;;;;4976502;28;20436;-81
2023/04/29 11:20:09;;;;;;;6.88;4.00;;;;;;;;;;4974449;28;20504;-81
2023/04/29 11:22:38;;;;;;;8.55;3.85;;;;;;;;;;4979565;28;20416;-80
2023/04/29 11:25:06;;;;;;;8.07;4.35;;;;;;;;;;5014715;28;20782;-80
2023/04/29 11:27:39;;;;;;;7.07;3.35;;;;;;;;;;4977577;28;20425;-81
2023/04/29 11:30:06;;;;;;;5.95;3.30;;;;;;;;;;4974616;28;20495;-82
2023/04/29 11:32:33;;;;;;;5.97;3.22;;;;;;;;;;4996634;28;20922;-81
2023/04/29 11:35:10;;;;;;;7.63;3.10;;;;;;;;;;4968901;28;20428;-82
2023/04/29 11:37:37;;;;;;;9.27;3.53;;;;;;;;;;4989139;28;20420;-82
2023/04/29 11:40:05;;;;;;;8.02;3.75;;;;;;;;;;5005434;28;20475;-81
2023/04/29 11:42:36;;;;;;;7.85;4.00;;;;;;;;;;5028598;28;20891;-80
2023/04/29 11:45:04;;;;;;;8.10;4.13;;;;;;;;;;5015232;28;20420;-81
2023/04/29 11:47:33;;;;;;;6.57;3.85;;;;;;;;;;5028214;28;20434;-80
2023/04/29 11:50:18;;;;;;;7.25;3.25;;;;;;;;;;5029662;28;20949;-80
2023/04/29 11:52:52;;;;;;;5.38;3.10;;;;;;;;;;5012704;28;20429;-80
2023/04/29 11:55:24;;;;;;;5.93;3.05;;;;;;;;;;5027016;28;20822;-80
2023/04/29 11:58:06;;;;;;;8.32;3.20;;;;;;;;;;5029260;28;20443;-81
2023/04/29 12:00:32;;;;;;;7.10;3.15;;;;;;;;;;5029079;28;20439;-80
2023/04/29 12:02:58;;;;;;;6.72;3.13;;;;;;;;;;5013702;28;20416;-80
2023/04/29 12:05:30;;;;;;;9.00;3.33;;;;;;;;;;5009969;28;20861;-80
2023/04/29 12:08:23;;;;;;;6.60;3.28;;;;;;;;;;4999917;28;20522;-79
2023/04/29 12:11:08;;;;;;;6.22;3.20;;;;;;;;;;5010020;28;20443;-80
2023/04/29 12:13:55;;;;;;;7.63;3.10;;;;;;;;;;5027215;28;20430;-80
2023/04/29 12:16:54;;;;;;;5.37;3.00;;;;;;;;;;5026448;28;20591;-81
2023/04/29 12:19:24;;;;;;;5.20;2.80;;;;;;;;;;5034402;28;20492;-80
2023/04/29 12:21:51;;;;;;;5.55;2.83;;;;;;;;;;5011777;28;20460;-79
2023/04/29 12:24:24;;;;;;;6.68;2.60;;;;;;;;;;5030391;28;20432;-79
2023/04/29 12:26:55;;;;;;;4.32;2.45;;;;;;;;;;5031686;28;20463;-79
2023/04/29 12:29:22;;;;;;;4.47;2.05;;;;;;;;;;5017381;28;20413;-79
2023/04/29 12:31:48;;;;;;;4.30;2.00;;;;;;;;;;5032824;28;20423;-80
2023/04/29 12:34:15;;;;;;;4.75;2.40;;;;;;;;;;5013520;28;20868;-80
2023/04/29 12:36:42;;;;;;;3.80;1.90;;;;;;;;;;5014386;28;20429;-80
2023/04/29 12:39:10;;;;;;;4.53;1.88;;;;;;;;;;5012567;28;20460;-80
2023/04/29 12:41:39;;;;;;;5.05;2.15;;;;;;;;;;5015154;28;20421;-80
2023/04/29 12:44:05;;;;;;;5.07;2.20;;;;;;;;;;5012132;28;20423;-80
2023/04/29 12:46:36;;;;;;;4.40;2.13;;;;;;;;;;5024189;28;20434;-80
2023/04/29 12:49:03;;;;;;;5.40;2.00;;;;;;;;;;5012907;28;20426;-79
2023/04/29 12:51:31;;;;;;;6.03;2.30;;;;;;;;;;5034744;28;20413;-79
2023/04/29 12:54:02;;;;;;;4.55;1.98;;;;;;;;;;5030918;28;20512;-79
2023/04/29 12:56:31;;;;;;;5.28;1.90;;;;;;;;;;5017404;28;20425;-79
2023/04/29 12:59:05;;;;;;;3.35;1.75;;;;;;;;;;5027201;28;20928;-80
2023/04/29 13:01:34;;;;;;;2.63;1.70;;;;;;;;;;5012075;28;20465;-80
2023/04/29 13:04:03;;;;;;;3.40;1.70;;;;;;;;;;5011622;28;20421;-79
2023/04/29 13:06:50;;;;;;;3.53;1.70;;;;;;;;;;5022026;28;20567;-77
2023/04/29 13:09:19;;;;;;;2.92;1.67;;;;;;;;;;5004211;28;20424;-78
2023/04/29 13:11:46;;;;;;;3.72;1.50;;;;;;;;;;5009322;28;20425;-79
2023/04/29 13:14:13;;;;;;;2.10;1.30;;;;;;;;;;5008586;28;20425;-80
2023/04/29 13:16:55;;;;;;;3.08;1.63;;;;;;;;;;5015559;28;20851;-80
2023/04/29 13:19:26;;;;;;;2.80;1.70;;;;;;;;;;4995740;28;20492;-79
2023/04/29 13:21:58;;;;;;;4.17;2.00;;;;;;;;;;5015570;28;20439;-79
2023/04/29 13:24:24;;;;;;;3.42;1.55;;;;;;;;;;5015317;28;20421;-79
2023/04/29 13:26:57;;;;;;;3.17;1.70;;;;;;;;;;5013093;28;20434;-80
2023/04/29 13:29:23;;;;;;;5.07;1.90;;;;;;;;;;5005597;28;20430;-79
2023/04/29 13:31:55;;;;;;;3.85;1.80;;;;;;;;;;5006719;28;20434;-81
2023/04/29 13:34:42;;;;;;;3.50;1.90;;;;;;;;;;5024471;28;20462;-82
2023/04/29 13:37:42;;;;;;;3.55;1.80;;;;;;;;;;5038777;28;20574;-81
2023/04/29 13:40:15;;;;;;;3.60;2.20;;;;;;;;;;5024339;28;20416;-81
2023/04/29 13:42:43;;;;;;;3.33;2.20;;;;;;;;;;5012552;28;20460;-80
2023/04/29 13:45:27;;;;;;;3.60;2.25;;;;;;;;;;5009018;28;20500;-79
2023/04/29 13:48:10;;;;;;;4.15;2.20;;;;;;;;;;5012511;28;20407;-80
2023/04/29 14:02:26;;;;;;;6.13;3.75;;;;;;;;;;5048507;28;20892;-81
2023/04/29 14:05:09;;;;;;;5.93;3.63;;;;;;;;;;5015021;28;20417;-82
2023/04/29 14:10:29;;;;;;;6.30;3.70;;;;;;;;;;5025509;28;20421;-81
2023/04/29 14:12:58;;;;;;;5.82;3.53;;;;;;;;;;5025925;28;20426;-81
2023/04/29 14:15:24;;;;;;;5.95;3.22;;;;;;;;;;5028702;28;20426;-79
2023/04/29 14:17:56;;;;;;;6.85;3.67;;;;;;;;;;5009155;28;20496;-81
2023/04/29 14:20:41;;;;;;;6.15;3.85;;;;;;;;;;5013023;28;20431;-81
2023/04/29 14:23:46;;;;;;;7.78;4.00;;;;;;;;;;5028477;28;20423;-80
2023/04/29 14:26:37;;;;;;;6.72;4.43;;;;;;;;;;4981832;28;20484;-80
2023/04/29 14:29:10;;;;;;;8.70;4.73;;;;;;;;;;5013468;28;20420;-80
2023/04/29 14:32:31;;;;;;;8.65;4.57;;;;;;;;;;5008381;28;20499;-81
2023/04/29 14:35:42;;;;;;;10.23;5.55;;;;;;;;;;4996425;28;20527;-81
2023/04/29 14:41:40;;;;;;;9.87;5.67;;;;;;;;;;4969051;28;20491;-82
2023/04/29 14:44:09;;;;;;;10.73;6.00;;;;;;;;;;4951338;28;20525;-82
2023/04/29 14:50:06;;;;;;;8.73;6.03;;;;;;;;;;4930611;29;20470;-82
2023/04/29 14:52:32;;;;;;;9.85;6.40;;;;;;;;;;4915661;29;20554;-83
2023/04/29 14:54:59;;;;;;;9.25;6.15;;;;;;;;;;4897616;29;20467;-82
2023/04/29 14:58:10;;;;;;;9.85;6.18;;;;;;;;;;4898780;29;20435;-82
2023/04/29 15:00:59;;;;;;;9.98;5.88;;;;;;;;;;4858959;29;20500;-81
2023/04/29 15:04:03;;;;;;;11.57;6.70;;;;;;;;;;4856720;29;20525;-81
2023/04/29 15:06:44;;;;;;;12.63;7.03;;;;;;;;;;4842286;29;20517;-81
2023/04/29 15:09:23;;;;;;;9.47;6.53;;;;;;;;;;4871807;29;20521;-80
2023/04/29 15:12:03;;;;;;;11.90;7.15;;;;;;;;;;4874693;29;20810;-80
2023/04/29 15:14:33;;;;;;;11.50;6.57;;;;;;;;;;4888324;29;20438;-80
2023/04/29 15:17:49;;;;;;;9.07;6.20;;;;;;;;;;4835753;29;20432;-81
2023/04/29 15:20:16;;;;;;;10.45;5.75;;;;;;;;;;4804971;29;20450;-80
2023/04/29 15:26:33;;;;;;;11.15;6.20;;;;;;;;;;4981009;28;20943;-82
2023/04/29 15:35:57;;;;;;;12.43;6.85;;;;;;;;;;4897478;29;20437;-83
2023/04/29 15:38:26;;;;;;;8.82;6.07;;;;;;;;;;4919711;29;20447;-82
2023/04/29 15:40:58;;;;;;;9.93;6.60;;;;;;;;;;4931728;29;20568;-81
2023/04/29 15:43:55;;;;;;;11.03;6.50;;;;;;;;;;4966600;28;21057;-82
2023/04/29 15:49:46;;;;;;;9.55;5.72;;;;;;;;;;4990650;28;20452;-81
2023/04/29 15:56:00;;;;;;;;;;;;;;;;;;;;;
2023/04/29 15:59:22;;;;;;;9.63;5.65;;;;;;;;;;4985408;28;20457;-80
2023/04/29 16:05:02;;;;;;;9.90;5.53;;;;;;;;;;4970802;28;20430;-82
2023/04/29 16:08:15;;;;;;;10.07;5.75;;;;;;;;;;4969691;28;20753;-81
2023/04/29 16:13:45;;;;;;;8.70;5.38;;;;;;;;;;4948115;28;20432;-81
2023/04/29 16:23:40;;;;;;;9.10;4.70;;;;;;;;;;4908403;29;20838;-81
2023/04/29 16:29:39;;;;;;;8.45;4.30;;;;;;;;;;4897426;29;20479;-77
2023/04/29 16:32:05;;;;;;;6.88;4.05;;;;;;;;;;4882891;29;20793;-78
2023/04/29 16:34:31;;;;;;;7.60;4.00;;;;;;;;;;4982021;28;20424;-77
2023/04/29 16:36:57;;;;;;;6.97;3.97;;;;;;;;;;5017349;28;20509;-77
2023/04/29 16:39:23;;;;;;;6.40;4.00;;;;;;;;;;5015416;28;20415;-77
2023/04/29 16:41:50;;;;;;;7.18;4.30;;;;;;;;;;5029602;28;20469;-77
2023/04/29 16:44:16;;;;;;;6.47;3.70;;;;;;;;;;5031714;28;20403;-77
2023/04/29 16:46:42;;;;;;;7.18;4.07;;;;;;;;;;5025588;28;20446;-77
2023/04/29 16:49:08;;;;;;;6.93;4.15;;;;;;;;;;5025056;28;20431;-77
2023/04/29 16:51:34;;;;;;;8.07;4.10;;;;;;;;;;5025215;28;20431;-77
2023/04/29 16:54:00;;;;;;;7.03;4.53;;;;;;;;;;5005955;28;20419;-76
2023/04/29 16:56:27;;;;;;;7.43;4.30;;;;;;;;;;5021278;28;20815;-77
2023/04/29 16:58:53;;;;;;;6.35;4.07;;;;;;;;;;5006518;28;20426;-76
2023/04/29 17:01:19;;;;;;;8.97;4.50;;;;;;;;;;5004476;28;20922;-76
2023/04/29 17:03:46;;;;;;;8.77;4.65;;;;;;;;;;5022116;28;20902;-77
2023/04/29 17:06:13;;;;;;;6.68;4.13;;;12.50;99.90;;;;;;5009419;28;20439;-77